createdAt,value
2018-07-20T00:01:10.723Z,14.30
2018-07-20T00:03:39.020Z,14.20
2018-07-20T00:06:07.314Z,14.00
2018-07-20T00:08:35.600Z,14.00
2018-07-20T00:11:03.878Z,14.20
2018-07-20T00:13:32.282Z,14.00
2018-07-20T00:16:00.542Z,13.90
2018-07-20T00:18:28.843Z,14.00
2018-07-20T00:20:57.114Z,14.00
2018-07-20T00:23:25.385Z,13.80
2018-07-20T00:25:53.659Z,13.90
2018-07-20T00:28:21.975Z,13.90
2018-07-20T00:30:50.242Z,14.00
2018-07-20T00:33:18.518Z,14.10
2018-07-20T00:35:46.815Z,13.80
2018-07-20T00:38:15.081Z,13.70
2018-07-20T00:40:43.356Z,13.50
2018-07-20T00:43:11.644Z,13.60
2018-07-20T00:45:39.951Z,13.70
2018-07-20T00:48:08.224Z,13.80
2018-07-20T00:50:36.518Z,13.80
2018-07-20T00:53:04.858Z,13.70
2018-07-20T00:55:33.159Z,13.70
2018-07-20T01:00:29.477Z,13.60
2018-07-20T01:02:57.895Z,13.60
2018-07-20T01:07:54.202Z,13.50
2018-07-20T01:10:22.563Z,13.60
2018-07-20T01:12:50.861Z,13.40
2018-07-20T01:15:19.129Z,13.30
2018-07-20T01:17:47.400Z,13.20
2018-07-20T01:20:16.218Z,13.30
2018-07-20T01:22:44.506Z,13.40
2018-07-20T01:25:12.775Z,13.40
2018-07-20T01:27:41.078Z,13.40
2018-07-20T01:32:37.365Z,13.50
2018-07-20T01:35:05.638Z,13.40
2018-07-20T01:37:33.930Z,13.40
2018-07-20T01:40:02.254Z,13.40
2018-07-20T01:42:30.527Z,13.40
2018-07-20T01:44:58.819Z,13.40
2018-07-20T01:47:27.103Z,13.40
2018-07-20T01:49:55.434Z,13.40
2018-07-20T01:52:23.724Z,13.30
2018-07-20T01:54:51.992Z,13.40
2018-07-20T01:57:20.268Z,13.40
2018-07-20T01:59:48.527Z,13.40
2018-07-20T02:02:16.794Z,13.40
2018-07-20T02:04:45.062Z,13.40
2018-07-20T02:07:13.358Z,13.30
2018-07-20T02:09:41.646Z,13.20
2018-07-20T02:12:09.909Z,13.20
2018-07-20T02:14:38.182Z,13.10
2018-07-20T02:17:06.457Z,13.10
2018-07-20T02:19:34.738Z,13.20
2018-07-20T02:22:03.022Z,13.10
2018-07-20T02:24:31.301Z,13.10
2018-07-20T02:26:59.579Z,13.10
2018-07-20T02:29:27.916Z,13.10
2018-07-20T02:31:56.151Z,13.00
2018-07-20T02:34:24.440Z,12.90
2018-07-20T02:36:52.737Z,12.70
2018-07-20T02:39:21.037Z,12.60
2018-07-20T02:41:49.291Z,12.60
2018-07-20T02:44:17.577Z,12.40
2018-07-20T02:46:45.847Z,12.30
2018-07-20T02:49:14.131Z,12.20
2018-07-20T02:51:42.409Z,12.20
2018-07-20T02:54:11.702Z,12.20
2018-07-20T02:56:39.967Z,12.10
2018-07-20T02:59:08.259Z,12.20
2018-07-20T03:01:36.539Z,12.10
2018-07-20T03:04:04.832Z,12.30
2018-07-20T03:06:33.106Z,12.30
2018-07-20T03:09:01.467Z,12.30
2018-07-20T03:11:29.675Z,12.40
2018-07-20T03:13:57.937Z,12.50
2018-07-20T03:16:26.218Z,12.50
2018-07-20T03:18:54.499Z,12.50
2018-07-20T03:21:22.774Z,12.50
2018-07-20T03:23:51.040Z,12.50
2018-07-20T03:26:19.336Z,12.50
2018-07-20T03:28:47.615Z,12.60
2018-07-20T03:31:15.887Z,12.50
2018-07-20T03:33:44.187Z,12.60
2018-07-20T03:36:12.519Z,12.50
2018-07-20T03:38:40.790Z,12.50
2018-07-20T03:41:09.106Z,12.50
2018-07-20T03:43:37.481Z,12.40
2018-07-20T03:46:05.751Z,12.40
2018-07-20T03:48:34.034Z,12.30
2018-07-20T03:51:02.318Z,12.40
2018-07-20T03:53:30.794Z,12.40
2018-07-20T03:55:59.210Z,12.50
2018-07-20T03:58:27.496Z,12.50
2018-07-20T04:00:55.757Z,12.60
2018-07-20T04:03:37.318Z,12.60
2018-07-20T04:06:05.578Z,12.60
2018-07-20T04:08:33.891Z,12.60
2018-07-20T04:11:02.391Z,12.80
2018-07-20T04:13:30.692Z,12.80
2018-07-20T04:15:58.992Z,12.80
2018-07-20T04:18:27.263Z,12.70
2018-07-20T04:20:55.574Z,12.70
2018-07-20T04:23:23.850Z,12.80
2018-07-20T04:25:52.279Z,12.80
2018-07-20T04:28:20.637Z,12.80
2018-07-20T04:30:48.904Z,12.80
2018-07-20T04:33:17.264Z,12.90
2018-07-20T04:35:45.533Z,12.90
2018-07-20T04:38:13.831Z,13.10
2018-07-20T04:40:42.147Z,13.20
2018-07-20T04:43:10.470Z,13.20
2018-07-20T04:48:06.743Z,13.30
2018-07-20T04:50:35.030Z,13.30
2018-07-20T04:53:03.330Z,13.40
2018-07-20T04:55:31.601Z,13.50
2018-07-20T04:57:59.881Z,13.50
2018-07-20T05:00:28.902Z,13.50
2018-07-20T05:05:25.397Z,13.70
2018-07-20T05:07:53.695Z,13.90
2018-07-20T05:10:21.946Z,14.00
2018-07-20T05:12:50.197Z,14.10
2018-07-20T05:15:18.461Z,14.10
2018-07-20T05:17:46.749Z,14.10
2018-07-20T05:20:15.014Z,14.30
2018-07-20T05:22:43.277Z,14.40
2018-07-20T05:25:12.779Z,14.50
2018-07-20T05:27:41.032Z,14.60
2018-07-20T05:30:09.289Z,14.80
2018-07-20T05:32:37.604Z,14.80
2018-07-20T05:35:05.816Z,14.90
2018-07-20T05:37:34.079Z,15.00
2018-07-20T05:40:02.455Z,15.10
2018-07-20T05:42:30.719Z,15.20
2018-07-20T05:44:58.967Z,15.30
2018-07-20T05:47:27.222Z,15.40
2018-07-20T05:49:55.479Z,15.60
2018-07-20T05:52:23.733Z,15.70
2018-07-20T05:54:51.986Z,15.90
2018-07-20T05:57:20.239Z,16.20
2018-07-20T05:59:48.494Z,16.30
2018-07-20T06:02:16.990Z,16.40
2018-07-20T06:07:13.309Z,16.70
2018-07-20T06:09:41.590Z,16.80
2018-07-20T06:12:10.451Z,16.90
2018-07-20T06:14:38.723Z,17.20
2018-07-20T06:17:06.984Z,17.40
2018-07-20T06:19:35.263Z,17.60
2018-07-20T06:22:03.707Z,17.80
2018-07-20T06:24:32.004Z,18.10
2018-07-20T06:27:00.277Z,18.20
2018-07-20T06:29:28.541Z,18.60
2018-07-20T06:31:56.880Z,18.90
2018-07-20T06:34:25.184Z,19.20
2018-07-20T06:36:53.454Z,19.40
2018-07-20T06:39:21.738Z,19.70
2018-07-20T06:41:50.004Z,20.00
2018-07-20T06:44:18.281Z,20.20
2018-07-20T06:46:46.550Z,20.50
2018-07-20T06:49:14.838Z,20.80
2018-07-20T06:51:43.114Z,21.00
2018-07-20T06:54:11.390Z,21.30
2018-07-20T06:56:39.669Z,21.30
2018-07-20T06:59:07.940Z,21.50
2018-07-20T07:01:36.208Z,21.90
2018-07-20T07:06:32.489Z,22.80
2018-07-20T07:09:00.733Z,23.30
2018-07-20T07:11:29.010Z,23.80
2018-07-20T07:13:57.314Z,24.40
2018-07-20T07:16:25.617Z,25.50
2018-07-20T07:18:53.887Z,26.50
2018-07-20T07:21:22.142Z,27.90
2018-07-20T07:23:50.391Z,29.90
2018-07-20T07:26:18.656Z,30.90
2018-07-20T07:28:46.913Z,31.10
2018-07-20T07:31:15.175Z,31.80
2018-07-20T07:33:43.449Z,32.70
2018-07-20T07:36:11.697Z,32.40
2018-07-20T07:38:39.993Z,33.20
2018-07-20T07:41:08.475Z,33.80
2018-07-20T07:43:36.737Z,34.40
2018-07-20T07:46:05.030Z,34.10
2018-07-20T07:48:33.275Z,34.00
2018-07-20T07:51:01.528Z,33.60
2018-07-20T07:53:29.814Z,32.50
2018-07-20T07:55:58.095Z,32.00
2018-07-20T08:00:54.331Z,32.00
2018-07-20T08:03:22.632Z,31.20
2018-07-20T08:08:18.900Z,30.40
2018-07-20T08:10:47.210Z,29.70
2018-07-20T08:13:15.492Z,29.30
2018-07-20T08:15:44.128Z,28.70
2018-07-20T08:18:12.376Z,28.50
2018-07-20T08:20:40.636Z,28.60
2018-07-20T08:23:08.918Z,29.00
2018-07-20T08:25:37.180Z,28.70
2018-07-20T08:28:05.653Z,28.70
2018-07-20T08:30:33.935Z,28.30
2018-07-20T08:33:02.259Z,28.70
2018-07-20T08:35:30.545Z,29.60
2018-07-20T08:37:58.819Z,30.10
2018-07-20T08:40:27.089Z,30.80
2018-07-20T08:42:55.379Z,31.50
2018-07-20T08:45:23.665Z,31.80
2018-07-20T08:47:51.936Z,32.40
2018-07-20T08:50:20.193Z,32.90
2018-07-20T08:52:48.498Z,34.00
2018-07-20T08:55:16.783Z,33.60
2018-07-20T08:57:45.057Z,34.20
2018-07-20T09:00:13.346Z,34.60
2018-07-20T09:02:41.598Z,34.40
2018-07-20T09:05:09.890Z,33.60
2018-07-20T09:07:38.150Z,33.00
2018-07-20T09:10:06.427Z,32.20
2018-07-20T09:12:34.761Z,31.90
2018-07-20T09:15:03.048Z,31.90
2018-07-20T09:17:31.306Z,31.60
2018-07-20T09:19:59.758Z,31.70
2018-07-20T09:22:28.050Z,31.50
2018-07-20T09:24:56.317Z,31.40
2018-07-20T09:27:24.574Z,31.30
2018-07-20T09:29:52.882Z,31.10
2018-07-20T09:32:21.214Z,31.20
2018-07-20T09:34:49.493Z,31.50
2018-07-20T09:37:17.775Z,31.50
2018-07-20T09:39:46.046Z,31.40
2018-07-20T09:42:14.349Z,31.50
2018-07-20T09:44:42.627Z,31.10
2018-07-20T09:47:10.901Z,31.20
2018-07-20T09:49:39.306Z,31.70
2018-07-20T09:52:07.631Z,31.90
2018-07-20T09:54:35.909Z,32.00
2018-07-20T09:57:04.189Z,31.90
2018-07-20T09:59:32.503Z,31.90
2018-07-20T10:02:00.782Z,31.70
2018-07-20T10:04:29.042Z,32.10
2018-07-20T10:06:57.306Z,31.50
2018-07-20T10:09:25.589Z,31.30
2018-07-20T10:11:53.856Z,31.70
2018-07-20T10:14:22.122Z,32.10
2018-07-20T10:16:50.382Z,32.30
2018-07-20T10:19:18.644Z,32.00
2018-07-20T10:21:46.930Z,31.90
2018-07-20T10:24:15.196Z,32.00
2018-07-20T10:26:43.565Z,32.30
2018-07-20T10:29:11.829Z,32.90
2018-07-20T10:31:40.093Z,33.30
2018-07-20T10:34:08.496Z,33.60
2018-07-20T10:36:36.776Z,34.30
2018-07-20T10:39:07.246Z,34.40
2018-07-20T10:41:35.754Z,34.00
2018-07-20T10:44:04.062Z,33.90
2018-07-20T10:46:32.324Z,34.70
2018-07-20T10:49:00.793Z,35.20
2018-07-20T10:51:29.073Z,36.40
2018-07-20T10:53:57.438Z,36.50
2018-07-20T10:56:25.783Z,37.70
2018-07-20T10:58:54.723Z,39.30
2018-07-20T11:01:23.080Z,39.90
2018-07-20T11:03:51.434Z,39.40
2018-07-20T11:06:19.685Z,39.10
2018-07-20T11:08:47.950Z,39.00
2018-07-20T11:11:16.203Z,39.20
2018-07-20T11:13:44.513Z,38.60
2018-07-20T11:16:12.747Z,38.00
2018-07-20T11:18:41.025Z,37.40
2018-07-20T11:21:09.278Z,37.50
2018-07-20T11:23:37.554Z,37.40
2018-07-20T11:26:06.157Z,38.20
2018-07-20T11:28:34.568Z,36.90
2018-07-20T11:31:02.849Z,37.00
2018-07-20T11:33:31.117Z,36.00
2018-07-20T11:35:59.612Z,35.60
2018-07-20T11:40:55.853Z,35.80
2018-07-20T11:43:24.102Z,36.30
2018-07-20T11:45:52.368Z,36.10
2018-07-20T11:48:20.619Z,36.20
2018-07-20T11:50:48.869Z,37.50
2018-07-20T11:53:17.131Z,37.60
2018-07-20T11:55:45.428Z,36.80
2018-07-20T11:58:13.704Z,37.40
2018-07-20T12:00:42.019Z,37.60
2018-07-20T12:03:10.295Z,36.80
2018-07-20T12:05:38.557Z,35.90
2018-07-20T12:08:06.847Z,35.20
2018-07-20T12:10:35.137Z,35.00
2018-07-20T12:13:06.387Z,35.20
2018-07-20T12:15:34.662Z,35.30
2018-07-20T12:18:02.962Z,36.00
2018-07-20T12:20:31.230Z,36.50
2018-07-20T12:22:59.495Z,36.00
2018-07-20T12:25:27.767Z,35.60
2018-07-20T12:27:56.027Z,35.20
2018-07-20T12:30:24.286Z,36.00
2018-07-20T12:32:52.546Z,36.30
2018-07-20T12:35:20.811Z,36.30
2018-07-20T12:37:49.083Z,37.00
2018-07-20T12:40:17.343Z,36.00
2018-07-20T12:42:45.611Z,35.10
2018-07-20T12:45:13.910Z,34.90
2018-07-20T12:47:42.195Z,35.00
2018-07-20T12:52:38.499Z,34.60
2018-07-20T12:55:06.770Z,35.10
2018-07-20T12:57:35.063Z,35.30
2018-07-20T13:00:03.379Z,35.20
2018-07-20T13:02:31.666Z,35.90
2018-07-20T13:04:59.936Z,35.90
2018-07-20T13:07:28.194Z,35.40
2018-07-20T13:09:56.470Z,34.90
2018-07-20T13:12:24.751Z,35.40
2018-07-20T13:14:53.019Z,35.60
2018-07-20T13:17:21.274Z,35.80
2018-07-20T13:19:49.582Z,35.60
2018-07-20T13:22:17.856Z,34.40
2018-07-20T13:24:46.119Z,34.00
2018-07-20T13:27:14.445Z,34.70
2018-07-20T13:29:42.730Z,34.80
2018-07-20T13:32:11.002Z,35.20
2018-07-20T13:34:39.260Z,35.70
2018-07-20T13:37:07.572Z,36.10
2018-07-20T13:39:35.846Z,35.80
2018-07-20T13:42:04.134Z,35.70
2018-07-20T13:44:32.442Z,35.90
2018-07-20T13:47:00.727Z,35.10
2018-07-20T13:49:29.011Z,34.90
2018-07-20T13:51:57.275Z,34.80
2018-07-20T13:54:25.539Z,34.30
2018-07-20T13:56:53.827Z,34.50
2018-07-20T14:01:50.130Z,35.00
2018-07-20T14:04:18.401Z,34.90
2018-07-20T14:06:46.684Z,34.90
2018-07-20T14:09:14.948Z,35.10
2018-07-20T14:11:43.312Z,35.30
2018-07-20T14:14:11.591Z,35.40
2018-07-20T14:16:39.897Z,35.40
2018-07-20T14:19:08.176Z,35.00
2018-07-20T14:21:36.454Z,35.10
2018-07-20T14:24:05.059Z,35.20
2018-07-20T14:26:33.383Z,34.90
2018-07-20T14:29:01.623Z,34.40
2018-07-20T14:31:30.034Z,33.90
2018-07-20T14:33:58.325Z,34.00
2018-07-20T14:36:26.738Z,33.20
2018-07-20T14:38:55.083Z,33.40
2018-07-20T14:41:23.350Z,33.60
2018-07-20T14:43:53.851Z,33.30
2018-07-20T14:46:22.154Z,33.10
2018-07-20T14:48:51.148Z,33.20
2018-07-20T14:51:19.950Z,32.60
2018-07-20T14:53:48.839Z,32.10
2018-07-20T14:56:17.844Z,31.50
2018-07-20T14:58:46.626Z,31.50
2018-07-20T15:01:17.330Z,31.30
2018-07-20T15:03:46.084Z,31.20
2018-07-20T15:06:14.929Z,31.10
2018-07-20T15:08:44.786Z,31.10
2018-07-20T15:11:13.657Z,31.00
2018-07-20T15:16:11.012Z,31.50
2018-07-20T15:21:08.690Z,31.40
2018-07-20T15:23:39.449Z,31.40
2018-07-20T15:26:08.632Z,31.40
2018-07-20T15:28:39.717Z,31.10
2018-07-20T15:31:11.094Z,31.00
2018-07-20T15:33:40.146Z,30.80
2018-07-20T15:36:08.860Z,30.80
2018-07-20T15:38:37.650Z,31.00
2018-07-20T15:41:06.476Z,31.00
2018-07-20T15:43:35.339Z,30.70
2018-07-20T15:46:06.564Z,30.90
2018-07-20T15:48:32.758Z,30.90
2018-07-20T15:51:01.630Z,31.10
2018-07-20T15:53:37.770Z,31.10
2018-07-20T15:58:28.061Z,30.80
2018-07-20T16:00:56.734Z,31.00
2018-07-20T16:03:25.615Z,30.80
2018-07-20T16:05:54.536Z,30.60
2018-07-20T16:08:23.382Z,30.80
2018-07-20T16:10:52.096Z,30.90
2018-07-20T16:13:20.895Z,30.90
2018-07-20T16:15:49.601Z,30.90
2018-07-20T16:18:18.517Z,30.90
2018-07-20T16:20:47.505Z,30.70
2018-07-20T16:23:16.233Z,30.70
2018-07-20T16:25:45.078Z,30.70
2018-07-20T16:28:14.246Z,30.40
2018-07-20T16:30:43.045Z,30.40
2018-07-20T16:33:12.862Z,30.40
2018-07-20T16:35:41.703Z,30.40
2018-07-20T16:38:10.425Z,30.40
2018-07-20T16:40:39.144Z,30.20
2018-07-20T16:43:08.070Z,30.20
2018-07-20T16:45:37.640Z,30.20
2018-07-20T16:48:06.588Z,30.20
2018-07-20T16:50:35.623Z,30.10
2018-07-20T16:53:04.375Z,30.00
2018-07-20T16:55:33.435Z,29.90
2018-07-20T16:58:02.121Z,29.80
2018-07-20T17:05:29.780Z,29.50
2018-07-20T17:07:58.524Z,29.60
2018-07-20T17:10:27.399Z,29.50
2018-07-20T17:12:56.580Z,29.40
2018-07-20T17:15:25.469Z,29.30
2018-07-20T17:17:54.409Z,29.00
2018-07-20T17:20:23.105Z,29.00
2018-07-20T17:22:52.108Z,28.90
2018-07-20T17:25:20.441Z,28.90
2018-07-20T17:27:49.585Z,28.80
2018-07-20T17:30:18.339Z,28.80
2018-07-20T17:32:47.386Z,28.80
2018-07-20T17:35:16.949Z,28.70
2018-07-20T17:37:45.829Z,28.70
2018-07-20T17:40:14.693Z,28.60
2018-07-20T17:42:43.930Z,28.60
2018-07-20T17:45:14.109Z,28.50
2018-07-20T17:47:42.804Z,28.40
2018-07-20T17:50:11.708Z,28.30
2018-07-20T17:52:40.435Z,28.20
2018-07-20T17:55:09.145Z,28.00
2018-07-20T17:57:37.846Z,27.80
2018-07-20T18:00:06.714Z,27.70
2018-07-20T18:02:35.633Z,27.60
2018-07-20T18:05:04.286Z,27.50
2018-07-20T18:07:33.017Z,27.40
2018-07-20T18:10:01.435Z,27.30
2018-07-20T18:12:29.747Z,27.20
2018-07-20T18:14:58.091Z,27.20
2018-07-20T18:17:26.378Z,27.00
2018-07-20T18:19:54.772Z,27.00
2018-07-20T18:22:23.063Z,26.90
2018-07-20T18:24:51.315Z,26.80
2018-07-20T18:27:19.847Z,26.70
2018-07-20T18:29:47.995Z,26.50
2018-07-20T18:32:16.253Z,26.40
2018-07-20T18:37:12.574Z,26.10
2018-07-20T18:39:40.832Z,25.90
2018-07-20T18:42:09.244Z,25.80
2018-07-20T18:49:33.682Z,25.30
2018-07-20T18:52:01.964Z,25.10
2018-07-20T18:54:30.371Z,24.90
2018-07-20T18:56:58.643Z,24.70
2018-07-20T18:59:26.898Z,24.50
2018-07-20T19:01:55.161Z,24.30
2018-07-20T19:04:23.503Z,24.20
2018-07-20T19:06:51.754Z,23.90
2018-07-20T19:09:20.028Z,23.80
2018-07-20T19:11:48.417Z,23.60
2018-07-20T19:14:16.682Z,23.50
2018-07-20T19:16:45.066Z,23.30
2018-07-20T19:19:14.024Z,23.20
2018-07-20T19:24:11.195Z,22.90
2018-07-20T19:26:40.018Z,22.80
2018-07-20T19:29:08.818Z,22.70
2018-07-20T19:31:37.505Z,22.60
2018-07-20T19:34:06.276Z,22.40
2018-07-20T19:36:34.969Z,22.30
2018-07-20T19:39:04.430Z,22.10
2018-07-20T19:41:33.229Z,21.90
2018-07-20T19:44:02.312Z,21.90
2018-07-20T19:46:31.063Z,21.80
2018-07-20T19:49:00.762Z,21.70
2018-07-20T19:51:29.102Z,21.60
2018-07-20T19:53:57.568Z,21.70
2018-07-20T19:56:25.931Z,21.40
2018-07-20T19:58:54.378Z,21.30
2018-07-20T20:01:22.691Z,21.20
2018-07-20T20:03:50.989Z,21.20
2018-07-20T20:06:19.864Z,21.00
2018-07-20T20:08:48.619Z,21.00
2018-07-20T20:11:17.298Z,20.90
2018-07-20T20:13:46.084Z,20.80
2018-07-20T20:16:15.930Z,20.70
2018-07-20T20:18:45.696Z,20.70
2018-07-20T20:21:14.731Z,20.70
2018-07-20T20:23:44.790Z,20.60
2018-07-20T20:26:14.139Z,20.60
2018-07-20T20:28:43.728Z,20.40
2018-07-20T20:31:12.789Z,20.50
2018-07-20T20:33:41.658Z,20.40
2018-07-20T20:36:10.380Z,20.30
2018-07-20T20:38:39.306Z,20.30
2018-07-20T20:41:08.079Z,20.30
2018-07-20T20:43:37.106Z,20.20
2018-07-20T20:46:06.268Z,20.40
2018-07-20T20:48:34.740Z,20.30
2018-07-20T20:51:03.088Z,20.30
2018-07-20T20:53:31.401Z,20.20
2018-07-20T20:55:59.657Z,20.20
2018-07-20T20:58:27.962Z,20.30
2018-07-20T21:00:56.245Z,20.40
2018-07-20T21:03:24.542Z,20.50
2018-07-20T21:05:52.806Z,20.60
2018-07-20T21:08:21.126Z,20.70
2018-07-20T21:10:49.389Z,20.70
2018-07-20T21:13:17.758Z,20.60
2018-07-20T21:15:46.029Z,20.50
2018-07-20T21:18:14.458Z,20.50
2018-07-20T21:20:42.782Z,20.30
2018-07-20T21:23:11.047Z,20.30
2018-07-20T21:25:39.381Z,20.20
2018-07-20T21:28:07.629Z,20.20
2018-07-20T21:30:35.926Z,20.20
2018-07-20T21:33:04.192Z,20.30
2018-07-20T21:38:00.476Z,20.40
2018-07-20T21:40:28.891Z,20.40
2018-07-20T21:42:57.154Z,20.40
2018-07-20T21:45:25.464Z,20.40
2018-07-20T21:47:53.667Z,20.40
2018-07-20T21:50:21.925Z,20.30
2018-07-20T21:52:50.325Z,20.20
2018-07-20T21:55:18.581Z,20.20
2018-07-20T21:57:46.838Z,20.10
2018-07-20T22:00:17.506Z,20.10
2018-07-20T22:02:46.132Z,20.00
2018-07-20T22:05:14.518Z,20.10
2018-07-20T22:07:42.997Z,20.00
2018-07-20T22:10:11.278Z,19.90
2018-07-20T22:12:39.634Z,19.80
2018-07-20T22:15:08.749Z,19.80
2018-07-20T22:17:37.090Z,19.80
2018-07-20T22:20:05.957Z,19.70
2018-07-20T22:22:34.656Z,19.60
2018-07-20T22:25:02.967Z,19.50
2018-07-20T22:27:31.257Z,19.60
2018-07-20T22:29:59.815Z,19.60
2018-07-20T22:32:28.071Z,19.50
2018-07-20T22:34:56.373Z,19.40
2018-07-20T22:37:24.704Z,19.40
2018-07-20T22:39:52.968Z,19.30
2018-07-20T22:42:21.250Z,19.30
2018-07-20T22:44:49.522Z,19.20
2018-07-20T22:47:17.804Z,19.20
2018-07-20T22:49:49.135Z,19.30
2018-07-20T22:52:17.446Z,19.30
2018-07-20T22:54:45.715Z,19.30
2018-07-20T22:57:13.999Z,19.30
2018-07-20T22:59:42.408Z,19.30
2018-07-20T23:02:10.753Z,19.20
2018-07-20T23:04:39.019Z,19.20
2018-07-20T23:07:07.285Z,19.10
2018-07-20T23:09:35.541Z,19.20
2018-07-20T23:12:03.823Z,19.20
2018-07-20T23:14:32.129Z,19.20
2018-07-20T23:17:00.390Z,19.10
2018-07-20T23:19:28.662Z,19.20
2018-07-20T23:21:56.985Z,19.10
2018-07-20T23:24:25.257Z,19.10
2018-07-20T23:26:53.519Z,19.10
2018-07-20T23:29:22.122Z,19.10
2018-07-20T23:31:50.341Z,18.90
2018-07-20T23:34:18.598Z,18.80
2018-07-20T23:36:46.856Z,18.60
2018-07-20T23:39:15.111Z,18.50
2018-07-20T23:41:43.382Z,18.50
2018-07-20T23:44:11.645Z,18.40
2018-07-20T23:46:39.922Z,18.40
2018-07-20T23:49:08.198Z,18.40
2018-07-20T23:51:36.455Z,18.40
2018-07-20T23:54:04.717Z,18.20
2018-07-20T23:56:33.137Z,18.00
2018-07-20T23:59:01.414Z,17.90
